sensor_id;sensor_type;location;lat;lon;timestamp;P1;durP1;ratioP1;P2;durP2;ratioP2
20846;SDS011;10584;50.854;12.902;2023-03-19T00:02:54;30.50;;;14.47;;
20846;SDS011;10584;50.854;12.902;2023-03-19T00:08:16;32.17;;;13.57;;
20846;SDS011;10584;50.854;12.902;2023-03-19T00:13:38;27.87;;;13.77;;
20846;SDS011;10584;50.854;12.902;2023-03-19T00:19:00;32.83;;;13.70;;
20846;SDS011;10584;50.854;12.902;2023-03-19T00:24:23;27.33;;;12.13;;
20846;SDS011;10584;50.854;12.902;2023-03-19T00:29:44;29.60;;;13.03;;
20846;SDS011;10584;50.854;12.902;2023-03-19T00:35:08;24.63;;;12.43;;
20846;SDS011;10584;50.854;12.902;2023-03-19T00:40:32;25.27;;;11.80;;
20846;SDS011;10584;50.854;12.902;2023-03-19T00:45:53;30.03;;;13.03;;
20846;SDS011;10584;50.854;12.902;2023-03-19T00:51:15;25.97;;;12.80;;
20846;SDS011;10584;50.854;12.902;2023-03-19T00:56:37;30.83;;;13.47;;
20846;SDS011;10584;50.854;12.902;2023-03-19T01:01:58;31.73;;;13.63;;
20846;SDS011;10584;50.854;12.902;2023-03-19T01:07:21;29.37;;;13.00;;
20846;SDS011;10584;50.854;12.902;2023-03-19T01:12:42;25.67;;;12.00;;
20846;SDS011;10584;50.854;12.902;2023-03-19T01:18:04;25.77;;;12.33;;
20846;SDS011;10584;50.854;12.902;2023-03-19T01:23:27;29.40;;;13.00;;
20846;SDS011;10584;50.854;12.902;2023-03-19T01:28:50;25.73;;;12.73;;
20846;SDS011;10584;50.854;12.902;2023-03-19T01:34:14;27.83;;;12.70;;
20846;SDS011;10584;50.854;12.902;2023-03-19T01:39:42;27.33;;;12.13;;
20846;SDS011;10584;50.854;12.902;2023-03-19T01:45:27;26.90;;;13.50;;
20846;SDS011;10584;50.854;12.902;2023-03-19T01:51:12;31.70;;;12.67;;
20846;SDS011;10584;50.854;12.902;2023-03-19T01:57:04;27.63;;;13.90;;
20846;SDS011;10584;50.854;12.902;2023-03-19T02:02:48;28.97;;;13.13;;
20846;SDS011;10584;50.854;12.902;2023-03-19T02:08:31;27.33;;;12.40;;
20846;SDS011;10584;50.854;12.902;2023-03-19T02:13:56;25.20;;;12.03;;
20846;SDS011;10584;50.854;12.902;2023-03-19T02:19:20;24.03;;;12.27;;
20846;SDS011;10584;50.854;12.902;2023-03-19T02:24:56;26.53;;;12.40;;
20846;SDS011;10584;50.854;12.902;2023-03-19T02:35:47;27.00;;;12.20;;
20846;SDS011;10584;50.854;12.902;2023-03-19T02:41:11;22.37;;;12.60;;
20846;SDS011;10584;50.854;12.902;2023-03-19T02:46:34;22.67;;;11.60;;
20846;SDS011;10584;50.854;12.902;2023-03-19T02:51:56;23.73;;;11.80;;
20846;SDS011;10584;50.854;12.902;2023-03-19T02:57:17;27.87;;;11.67;;
20846;SDS011;10584;50.854;12.902;2023-03-19T03:02:39;24.97;;;12.43;;
20846;SDS011;10584;50.854;12.902;2023-03-19T03:08:01;25.63;;;13.23;;
20846;SDS011;10584;50.854;12.902;2023-03-19T03:13:24;27.10;;;12.33;;
20846;SDS011;10584;50.854;12.902;2023-03-19T03:18:45;26.90;;;13.07;;
20846;SDS011;10584;50.854;12.902;2023-03-19T03:24:07;28.93;;;12.20;;
20846;SDS011;10584;50.854;12.902;2023-03-19T03:29:30;26.27;;;12.57;;
20846;SDS011;10584;50.854;12.902;2023-03-19T03:34:52;28.77;;;12.10;;
20846;SDS011;10584;50.854;12.902;2023-03-19T03:40:14;25.40;;;12.30;;
20846;SDS011;10584;50.854;12.902;2023-03-19T03:45:38;23.57;;;11.73;;
20846;SDS011;10584;50.854;12.902;2023-03-19T03:51:00;28.53;;;12.40;;
20846;SDS011;10584;50.854;12.902;2023-03-19T03:56:23;23.80;;;12.63;;
20846;SDS011;10584;50.854;12.902;2023-03-19T04:01:45;24.70;;;11.87;;
20846;SDS011;10584;50.854;12.902;2023-03-19T04:07:07;24.40;;;12.17;;
20846;SDS011;10584;50.854;12.902;2023-03-19T04:12:39;21.80;;;11.27;;
20846;SDS011;10584;50.854;12.902;2023-03-19T04:18:01;27.43;;;11.97;;
20846;SDS011;10584;50.854;12.902;2023-03-19T04:23:24;23.20;;;11.00;;
20846;SDS011;10584;50.854;12.902;2023-03-19T04:28:46;22.80;;;11.27;;
20846;SDS011;10584;50.854;12.902;2023-03-19T04:34:08;23.40;;;11.57;;
20846;SDS011;10584;50.854;12.902;2023-03-19T04:39:30;23.00;;;11.27;;
20846;SDS011;10584;50.854;12.902;2023-03-19T04:44:52;25.47;;;12.00;;
20846;SDS011;10584;50.854;12.902;2023-03-19T04:50:15;26.90;;;12.17;;
20846;SDS011;10584;50.854;12.902;2023-03-19T04:55:38;24.80;;;11.57;;
20846;SDS011;10584;50.854;12.902;2023-03-19T05:01:07;24.97;;;12.27;;
20846;SDS011;10584;50.854;12.902;2023-03-19T05:07:00;26.17;;;11.83;;
20846;SDS011;10584;50.854;12.902;2023-03-19T05:12:23;20.50;;;11.53;;
20846;SDS011;10584;50.854;12.902;2023-03-19T05:17:47;23.67;;;11.10;;
20846;SDS011;10584;50.854;12.902;2023-03-19T05:23:14;22.07;;;10.70;;
20846;SDS011;10584;50.854;12.902;2023-03-19T05:28:55;25.27;;;11.20;;
20846;SDS011;10584;50.854;12.902;2023-03-19T05:34:27;21.70;;;11.77;;
20846;SDS011;10584;50.854;12.902;2023-03-19T05:39:50;27.07;;;12.27;;
20846;SDS011;10584;50.854;12.902;2023-03-19T05:45:12;29.80;;;13.07;;
20846;SDS011;10584;50.854;12.902;2023-03-19T05:50:40;30.70;;;13.37;;
20846;SDS011;10584;50.854;12.902;2023-03-19T05:56:12;27.17;;;11.90;;
20846;SDS011;10584;50.854;12.902;2023-03-19T06:01:53;26.27;;;12.50;;
20846;SDS011;10584;50.854;12.902;2023-03-19T06:07:15;25.43;;;12.27;;
20846;SDS011;10584;50.854;12.902;2023-03-19T06:12:37;24.43;;;12.17;;
20846;SDS011;10584;50.854;12.902;2023-03-19T06:18:07;26.47;;;13.43;;
20846;SDS011;10584;50.854;12.902;2023-03-19T06:23:29;27.67;;;12.67;;
20846;SDS011;10584;50.854;12.902;2023-03-19T06:28:54;22.40;;;12.20;;
20846;SDS011;10584;50.854;12.902;2023-03-19T06:34:17;30.00;;;12.63;;
20846;SDS011;10584;50.854;12.902;2023-03-19T06:39:39;26.33;;;12.87;;
20846;SDS011;10584;50.854;12.902;2023-03-19T06:45:01;27.60;;;12.03;;
20846;SDS011;10584;50.854;12.902;2023-03-19T06:50:23;34.43;;;14.67;;
20846;SDS011;10584;50.854;12.902;2023-03-19T06:55:46;29.67;;;12.60;;
20846;SDS011;10584;50.854;12.902;2023-03-19T07:01:08;27.30;;;12.47;;
20846;SDS011;10584;50.854;12.902;2023-03-19T07:06:29;22.60;;;10.73;;
20846;SDS011;10584;50.854;12.902;2023-03-19T07:11:51;22.77;;;10.50;;
20846;SDS011;10584;50.854;12.902;2023-03-19T07:17:13;21.60;;;10.00;;
20846;SDS011;10584;50.854;12.902;2023-03-19T07:22:34;26.53;;;11.00;;
20846;SDS011;10584;50.854;12.902;2023-03-19T07:27:56;24.10;;;10.77;;
20846;SDS011;10584;50.854;12.902;2023-03-19T07:33:18;20.43;;;10.57;;
20846;SDS011;10584;50.854;12.902;2023-03-19T07:38:41;19.37;;;10.53;;
20846;SDS011;10584;50.854;12.902;2023-03-19T07:44:02;19.10;;;10.33;;
20846;SDS011;10584;50.854;12.902;2023-03-19T07:49:24;19.83;;;10.50;;
20846;SDS011;10584;50.854;12.902;2023-03-19T07:54:45;21.03;;;10.60;;
20846;SDS011;10584;50.854;12.902;2023-03-19T08:00:08;18.13;;;9.57;;
20846;SDS011;10584;50.854;12.902;2023-03-19T08:05:32;22.87;;;10.37;;
20846;SDS011;10584;50.854;12.902;2023-03-19T08:10:54;19.83;;;9.80;;
20846;SDS011;10584;50.854;12.902;2023-03-19T08:16:17;20.00;;;9.53;;
20846;SDS011;10584;50.854;12.902;2023-03-19T08:21:38;19.97;;;9.93;;
20846;SDS011;10584;50.854;12.902;2023-03-19T08:27:00;19.40;;;8.60;;
20846;SDS011;10584;50.854;12.902;2023-03-19T08:32:22;19.97;;;9.47;;
20846;SDS011;10584;50.854;12.902;2023-03-19T08:37:45;17.73;;;9.00;;
20846;SDS011;10584;50.854;12.902;2023-03-19T08:43:07;18.17;;;9.07;;
20846;SDS011;10584;50.854;12.902;2023-03-19T08:48:29;18.87;;;8.83;;
20846;SDS011;10584;50.854;12.902;2023-03-19T08:53:51;22.83;;;8.90;;
20846;SDS011;10584;50.854;12.902;2023-03-19T08:59:13;18.27;;;8.30;;
20846;SDS011;10584;50.854;12.902;2023-03-19T09:04:36;17.43;;;8.43;;
20846;SDS011;10584;50.854;12.902;2023-03-19T09:10:03;17.57;;;8.23;;
20846;SDS011;10584;50.854;12.902;2023-03-19T09:15:26;19.07;;;8.90;;
20846;SDS011;10584;50.854;12.902;2023-03-19T09:20:48;17.03;;;8.30;;
20846;SDS011;10584;50.854;12.902;2023-03-19T09:26:10;15.27;;;7.83;;
20846;SDS011;10584;50.854;12.902;2023-03-19T09:31:32;16.33;;;7.73;;
20846;SDS011;10584;50.854;12.902;2023-03-19T09:36:54;17.40;;;8.37;;
20846;SDS011;10584;50.854;12.902;2023-03-19T09:47:50;16.90;;;8.57;;
20846;SDS011;10584;50.854;12.902;2023-03-19T09:58:57;17.17;;;8.27;;
20846;SDS011;10584;50.854;12.902;2023-03-19T10:15:36;13.43;;;7.50;;
20846;SDS011;10584;50.854;12.902;2023-03-19T10:21:02;14.97;;;7.83;;
20846;SDS011;10584;50.854;12.902;2023-03-19T10:26:32;15.17;;;7.80;;
20846;SDS011;10584;50.854;12.902;2023-03-19T10:31:58;13.90;;;7.63;;
20846;SDS011;10584;50.854;12.902;2023-03-19T10:37:42;13.80;;;7.40;;
20846;SDS011;10584;50.854;12.902;2023-03-19T10:43:17;14.40;;;7.40;;
20846;SDS011;10584;50.854;12.902;2023-03-19T10:48:46;9.33;;;5.60;;
20846;SDS011;10584;50.854;12.902;2023-03-19T10:54:19;9.47;;;4.83;;
20846;SDS011;10584;50.854;12.902;2023-03-19T10:59:41;11.07;;;5.23;;
20846;SDS011;10584;50.854;12.902;2023-03-19T11:05:07;5.50;;;3.00;;
20846;SDS011;10584;50.854;12.902;2023-03-19T11:10:47;5.63;;;2.73;;
20846;SDS011;10584;50.854;12.902;2023-03-19T11:16:09;6.07;;;3.30;;
20846;SDS011;10584;50.854;12.902;2023-03-19T11:21:31;6.90;;;3.30;;
20846;SDS011;10584;50.854;12.902;2023-03-19T11:26:55;6.33;;;2.40;;
20846;SDS011;10584;50.854;12.902;2023-03-19T11:38:01;8.13;;;4.20;;
20846;SDS011;10584;50.854;12.902;2023-03-19T12:23:06;7.53;;;4.10;;
20846;SDS011;10584;50.854;12.902;2023-03-19T12:28:45;7.10;;;3.90;;
20846;SDS011;10584;50.854;12.902;2023-03-19T12:45:34;11.97;;;3.37;;
20846;SDS011;10584;50.854;12.902;2023-03-19T12:51:25;5.97;;;2.90;;
20846;SDS011;10584;50.854;12.902;2023-03-19T13:20:27;9.50;;;4.17;;
20846;SDS011;10584;50.854;12.902;2023-03-19T13:25:53;4.17;;;2.60;;
20846;SDS011;10584;50.854;12.902;2023-03-19T13:31:18;5.83;;;2.60;;
20846;SDS011;10584;50.854;12.902;2023-03-19T13:36:44;4.90;;;2.70;;
20846;SDS011;10584;50.854;12.902;2023-03-19T13:48:33;5.23;;;3.33;;
20846;SDS011;10584;50.854;12.902;2023-03-19T14:10:29;5.50;;;3.07;;
20846;SDS011;10584;50.854;12.902;2023-03-19T14:15:52;6.23;;;2.80;;
20846;SDS011;10584;50.854;12.902;2023-03-19T14:21:33;4.93;;;2.47;;
20846;SDS011;10584;50.854;12.902;2023-03-19T14:27:16;5.27;;;2.50;;
20846;SDS011;10584;50.854;12.902;2023-03-19T14:32:53;3.67;;;2.40;;
20846;SDS011;10584;50.854;12.902;2023-03-19T14:38:39;3.10;;;1.83;;
20846;SDS011;10584;50.854;12.902;2023-03-19T14:44:18;4.10;;;1.90;;
20846;SDS011;10584;50.854;12.902;2023-03-19T14:55:48;5.77;;;2.93;;
20846;SDS011;10584;50.854;12.902;2023-03-19T15:01:11;8.57;;;3.60;;
20846;SDS011;10584;50.854;12.902;2023-03-19T15:06:37;5.70;;;2.80;;
20846;SDS011;10584;50.854;12.902;2023-03-19T15:12:25;6.00;;;3.43;;
20846;SDS011;10584;50.854;12.902;2023-03-19T15:18:11;6.73;;;3.47;;
20846;SDS011;10584;50.854;12.902;2023-03-19T15:23:34;6.60;;;3.30;;
20846;SDS011;10584;50.854;12.902;2023-03-19T15:29:00;7.13;;;4.50;;
20846;SDS011;10584;50.854;12.902;2023-03-19T15:34:25;4.93;;;3.50;;
20846;SDS011;10584;50.854;12.902;2023-03-19T15:39:48;5.90;;;3.17;;
20846;SDS011;10584;50.854;12.902;2023-03-19T15:45:15;6.93;;;3.17;;
20846;SDS011;10584;50.854;12.902;2023-03-19T15:50:41;12.00;;;3.10;;
20846;SDS011;10584;50.854;12.902;2023-03-19T15:56:05;9.97;;;3.43;;
20846;SDS011;10584;50.854;12.902;2023-03-19T16:01:27;6.40;;;3.87;;
20846;SDS011;10584;50.854;12.902;2023-03-19T16:06:56;6.30;;;3.37;;
20846;SDS011;10584;50.854;12.902;2023-03-19T16:12:27;7.40;;;2.97;;
20846;SDS011;10584;50.854;12.902;2023-03-19T16:18:07;5.20;;;3.23;;
20846;SDS011;10584;50.854;12.902;2023-03-19T16:23:36;8.20;;;3.80;;
20846;SDS011;10584;50.854;12.902;2023-03-19T16:34:43;5.97;;;3.20;;
20846;SDS011;10584;50.854;12.902;2023-03-19T16:45:32;5.73;;;3.37;;
20846;SDS011;10584;50.854;12.902;2023-03-19T16:50:54;5.67;;;3.10;;
20846;SDS011;10584;50.854;12.902;2023-03-19T16:56:16;6.70;;;3.50;;
20846;SDS011;10584;50.854;12.902;2023-03-19T17:01:38;6.30;;;3.50;;
20846;SDS011;10584;50.854;12.902;2023-03-19T17:07:00;7.37;;;3.17;;
20846;SDS011;10584;50.854;12.902;2023-03-19T17:12:22;5.47;;;3.30;;
20846;SDS011;10584;50.854;12.902;2023-03-19T17:17:43;6.90;;;3.40;;
20846;SDS011;10584;50.854;12.902;2023-03-19T17:23:09;6.20;;;3.20;;
20846;SDS011;10584;50.854;12.902;2023-03-19T17:28:32;5.87;;;3.30;;
20846;SDS011;10584;50.854;12.902;2023-03-19T17:34:10;4.70;;;3.33;;
20846;SDS011;10584;50.854;12.902;2023-03-19T17:39:40;9.10;;;3.27;;
20846;SDS011;10584;50.854;12.902;2023-03-19T17:45:02;6.10;;;3.40;;
20846;SDS011;10584;50.854;12.902;2023-03-19T17:50:25;7.53;;;3.70;;
20846;SDS011;10584;50.854;12.902;2023-03-19T17:55:50;6.63;;;4.03;;
20846;SDS011;10584;50.854;12.902;2023-03-19T18:01:13;8.83;;;4.23;;
20846;SDS011;10584;50.854;12.902;2023-03-19T18:06:45;7.90;;;4.20;;
20846;SDS011;10584;50.854;12.902;2023-03-19T18:12:14;6.33;;;3.87;;
20846;SDS011;10584;50.854;12.902;2023-03-19T18:17:36;7.33;;;4.10;;
20846;SDS011;10584;50.854;12.902;2023-03-19T18:22:59;8.13;;;4.03;;
20846;SDS011;10584;50.854;12.902;2023-03-19T18:28:21;8.33;;;4.03;;
20846;SDS011;10584;50.854;12.902;2023-03-19T18:33:47;10.73;;;4.33;;
20846;SDS011;10584;50.854;12.902;2023-03-19T18:39:11;8.97;;;4.67;;
20846;SDS011;10584;50.854;12.902;2023-03-19T18:44:34;12.47;;;5.33;;
20846;SDS011;10584;50.854;12.902;2023-03-19T18:49:56;10.60;;;5.27;;
20846;SDS011;10584;50.854;12.902;2023-03-19T18:55:22;9.77;;;5.43;;
20846;SDS011;10584;50.854;12.902;2023-03-19T19:00:48;12.97;;;7.27;;
20846;SDS011;10584;50.854;12.902;2023-03-19T19:06:17;13.37;;;7.30;;
20846;SDS011;10584;50.854;12.902;2023-03-19T19:12:04;15.37;;;8.33;;
20846;SDS011;10584;50.854;12.902;2023-03-19T19:17:28;17.23;;;8.70;;
20846;SDS011;10584;50.854;12.902;2023-03-19T19:22:51;16.20;;;8.23;;
20846;SDS011;10584;50.854;12.902;2023-03-19T19:28:18;16.97;;;9.67;;
20846;SDS011;10584;50.854;12.902;2023-03-19T19:33:46;19.23;;;9.97;;
20846;SDS011;10584;50.854;12.902;2023-03-19T19:39:07;21.97;;;11.07;;
20846;SDS011;10584;50.854;12.902;2023-03-19T19:44:29;22.67;;;11.93;;
20846;SDS011;10584;50.854;12.902;2023-03-19T19:49:51;22.33;;;11.90;;
20846;SDS011;10584;50.854;12.902;2023-03-19T19:55:13;24.47;;;12.43;;
20846;SDS011;10584;50.854;12.902;2023-03-19T20:00:35;24.23;;;13.27;;
20846;SDS011;10584;50.854;12.902;2023-03-19T20:05:57;24.13;;;13.23;;
20846;SDS011;10584;50.854;12.902;2023-03-19T20:11:22;29.93;;;15.17;;
20846;SDS011;10584;50.854;12.902;2023-03-19T20:16:45;43.90;;;20.47;;
20846;SDS011;10584;50.854;12.902;2023-03-19T20:22:08;42.70;;;19.50;;
20846;SDS011;10584;50.854;12.902;2023-03-19T20:27:30;30.83;;;16.03;;
20846;SDS011;10584;50.854;12.902;2023-03-19T20:32:53;24.77;;;13.60;;
20846;SDS011;10584;50.854;12.902;2023-03-19T20:38:16;25.87;;;14.70;;
20846;SDS011;10584;50.854;12.902;2023-03-19T20:43:37;26.23;;;13.60;;
20846;SDS011;10584;50.854;12.902;2023-03-19T20:49:00;26.83;;;14.63;;
20846;SDS011;10584;50.854;12.902;2023-03-19T20:54:21;28.17;;;14.90;;
20846;SDS011;10584;50.854;12.902;2023-03-19T20:59:46;26.43;;;13.63;;
20846;SDS011;10584;50.854;12.902;2023-03-19T21:05:12;24.80;;;13.70;;
20846;SDS011;10584;50.854;12.902;2023-03-19T21:10:38;20.63;;;11.07;;
20846;SDS011;10584;50.854;12.902;2023-03-19T21:16:03;19.37;;;10.20;;
20846;SDS011;10584;50.854;12.902;2023-03-19T21:21:33;19.20;;;10.43;;
20846;SDS011;10584;50.854;12.902;2023-03-19T21:26:57;21.80;;;10.27;;
20846;SDS011;10584;50.854;12.902;2023-03-19T21:32:19;18.80;;;9.57;;
20846;SDS011;10584;50.854;12.902;2023-03-19T21:37:40;18.33;;;10.20;;
20846;SDS011;10584;50.854;12.902;2023-03-19T21:43:03;15.87;;;9.60;;
20846;SDS011;10584;50.854;12.902;2023-03-19T21:48:31;16.03;;;9.37;;
20846;SDS011;10584;50.854;12.902;2023-03-19T21:53:56;18.97;;;10.30;;
20846;SDS011;10584;50.854;12.902;2023-03-19T21:59:20;21.57;;;10.60;;
20846;SDS011;10584;50.854;12.902;2023-03-19T22:04:48;20.13;;;9.97;;
20846;SDS011;10584;50.854;12.902;2023-03-19T22:10:10;17.43;;;9.63;;
20846;SDS011;10584;50.854;12.902;2023-03-19T22:15:33;18.20;;;10.00;;
20846;SDS011;10584;50.854;12.902;2023-03-19T22:20:57;21.77;;;9.87;;
20846;SDS011;10584;50.854;12.902;2023-03-19T22:26:26;16.13;;;9.43;;
20846;SDS011;10584;50.854;12.902;2023-03-19T22:31:51;19.80;;;9.93;;
20846;SDS011;10584;50.854;12.902;2023-03-19T22:37:33;17.37;;;9.53;;
20846;SDS011;10584;50.854;12.902;2023-03-19T22:42:54;18.47;;;9.40;;
20846;SDS011;10584;50.854;12.902;2023-03-19T22:48:16;18.17;;;10.17;;
20846;SDS011;10584;50.854;12.902;2023-03-19T22:53:37;23.23;;;10.00;;
20846;SDS011;10584;50.854;12.902;2023-03-19T22:58:59;16.10;;;9.03;;
20846;SDS011;10584;50.854;12.902;2023-03-19T23:09:48;15.80;;;9.73;;
20846;SDS011;10584;50.854;12.902;2023-03-19T23:15:09;18.90;;;10.13;;
20846;SDS011;10584;50.854;12.902;2023-03-19T23:20:32;16.07;;;9.33;;
20846;SDS011;10584;50.854;12.902;2023-03-19T23:25:53;15.17;;;8.97;;
20846;SDS011;10584;50.854;12.902;2023-03-19T23:31:16;14.97;;;9.10;;
20846;SDS011;10584;50.854;12.902;2023-03-19T23:36:38;15.33;;;8.70;;
20846;SDS011;10584;50.854;12.902;2023-03-19T23:42:01;14.73;;;9.03;;
20846;SDS011;10584;50.854;12.902;2023-03-19T23:47:25;15.97;;;8.77;;
20846;SDS011;10584;50.854;12.902;2023-03-19T23:52:49;15.13;;;8.17;;
20846;SDS011;10584;50.854;12.902;2023-03-19T23:58:10;14.93;;;8.33;;
